Time;durP1;ratioP1;P1;durP2;ratioP2;P2;SDS_P1;SDS_P2;PMS_P1;PMS_P2;Temp;Humidity;BMP_temperature;BMP_pressure;BME280_temperature;BME280_humidity;BME280_pressure;Samples;Min_cycle;Max_cycle;Signal;HPM_P1;HPM_P2
2021/05/25 00:01:50;;;;;;;2.90;1.60;;;19.40;37.50;;;;;;20838343;28;20510;-74
2021/05/25 00:11:52;;;;;;;8.02;2.85;;;19.40;36.70;;;;;;20838588;28;20049;-74
2021/05/25 00:21:53;;;;;;;3.60;1.55;;;19.30;36.10;;;;;;20843164;28;20045;-73
2021/05/25 00:31:54;;;;;;;3.45;1.40;;;19.20;36.60;;;;;;20844544;28;20054;-74
2021/05/25 00:41:56;;;;;;;3.58;1.58;;;19.20;36.20;;;;;;20834921;28;20049;-74
2021/05/25 00:51:57;;;;;;;6.30;1.70;;;19.10;36.20;;;;;;20834929;28;20456;-74
2021/05/25 01:01:58;;;;;;;3.88;1.60;;;18.80;36.40;;;;;;20834258;28;20120;-74
2021/05/25 01:12:02;;;;;;;4.30;1.88;;;18.70;37.20;;;;;;20833400;28;20097;-73
2021/05/25 01:22:03;;;;;;;4.72;2.05;;;18.60;37.30;;;;;;20830642;28;20136;-73
2021/05/25 01:32:05;;;;;;;3.15;1.70;;;18.40;38.00;;;;;;20831147;28;20136;-72
2021/05/25 01:42:06;;;;;;;4.18;1.60;;;18.30;38.60;;;;;;20831141;28;20494;-73
2021/05/25 01:52:08;;;;;;;4.88;1.80;;;18.20;38.30;;;;;;20836171;28;20084;-74
2021/05/25 02:02:11;;;;;;;4.00;1.80;;;18.10;38.60;;;;;;20865573;28;20072;-74
2021/05/25 02:12:17;;;;;;;6.07;1.63;;;18.00;38.80;;;;;;20832009;28;20517;-71
2021/05/25 02:22:18;;;;;;;5.70;1.80;;;18.00;38.90;;;;;;20833532;28;20054;-74
2021/05/25 02:32:20;;;;;;;2.55;1.33;;;17.80;39.20;;;;;;20829140;28;20049;-73
2021/05/25 02:42:21;;;;;;;4.00;1.60;;;17.80;39.80;;;;;;20837124;28;20056;-73
2021/05/25 02:52:22;;;;;;;6.03;1.50;;;17.80;39.50;;;;;;20843834;28;20085;-73
2021/05/25 03:02:24;;;;;;;4.30;1.70;;;17.70;39.90;;;;;;20844265;28;20099;-72
2021/05/25 03:12:25;;;;;;;6.07;1.98;;;17.70;40.10;;;;;;20843608;28;20049;-72
2021/05/25 03:22:26;;;;;;;4.13;1.50;;;17.60;41.20;;;;;;20856236;28;20050;-71
2021/05/25 03:32:28;;;;;;;6.63;1.55;;;17.30;43.40;;;;;;20854297;28;20053;-71
2021/05/25 03:42:29;;;;;;;5.28;1.95;;;17.10;45.50;;;;;;20850462;28;20052;-63
2021/05/25 03:52:30;;;;;;;6.25;1.83;;;17.00;47.10;;;;;;20838920;28;20486;-72
2021/05/25 04:02:32;;;;;;;3.85;1.50;;;16.80;48.60;;;;;;20841044;28;20410;-65
2021/05/25 04:12:33;;;;;;;5.85;2.10;;;16.50;49.70;;;;;;20838013;28;20077;-73
2021/05/25 04:22:34;;;;;;;4.18;2.20;;;16.30;50.30;;;;;;20837211;28;20042;-73
2021/05/25 04:32:36;;;;;;;12.25;2.47;;;16.20;50.80;;;;;;20835591;28;20064;-73
2021/05/25 04:42:38;;;;;;;7.20;2.85;;;16.10;51.00;;;;;;20835195;28;20045;-73
2021/05/25 04:52:40;;;;;;;8.55;2.97;;;15.90;51.30;;;;;;20836298;28;20057;-66
2021/05/25 05:02:42;;;;;;;4.32;2.30;;;15.80;51.50;;;;;;20841668;28;20052;-73
2021/05/25 05:12:43;;;;;;;5.97;2.50;;;15.60;52.00;;;;;;20832840;28;20049;-72
2021/05/25 05:22:44;;;;;;;6.50;2.90;;;15.40;52.40;;;;;;20832349;28;20100;-73
2021/05/25 05:32:46;;;;;;;10.25;3.83;;;15.20;52.70;;;;;;20833067;28;20100;-70
2021/05/25 05:42:47;;;;;;;9.73;3.55;;;15.20;52.90;;;;;;20833451;28;20107;-73
2021/05/25 05:52:48;;;;;;;7.35;2.65;;;15.10;53.20;;;;;;20831289;28;20469;-73
2021/05/25 06:02:50;;;;;;;8.45;3.13;;;15.00;53.50;;;;;;20831034;28;20506;-69
2021/05/25 06:12:51;;;;;;;6.45;2.42;;;15.10;53.10;;;;;;20831398;28;20069;-69
2021/05/25 06:22:52;;;;;;;6.45;2.53;;;15.30;52.80;;;;;;20845497;28;20486;-71
2021/05/25 06:32:54;;;;;;;8.70;2.78;;;15.30;52.80;;;;;;20845045;28;20053;-71
2021/05/25 06:42:55;;;;;;;8.10;2.53;;;15.30;52.60;;;;;;20847010;28;20120;-68
2021/05/25 06:52:57;;;;;;;9.48;3.08;;;15.40;52.20;;;;;;20845757;28;20057;-72
2021/05/25 07:02:58;;;;;;;8.20;2.80;;;15.60;51.50;;;;;;20858599;28;20041;-71
2021/05/25 07:12:59;;;;;;;9.00;2.95;;;15.70;51.20;;;;;;20856277;28;20060;-73
2021/05/25 07:23:01;;;;;;;8.20;3.50;;;16.10;50.50;;;;;;20893560;28;20045;-71
2021/05/25 07:33:02;;;;;;;9.55;2.67;;;16.50;49.00;;;;;;20872161;28;20050;-68
2021/05/25 07:43:04;;;;;;;9.50;3.00;;;16.70;48.60;;;;;;20841739;28;20041;-69
2021/05/25 07:53:05;;;;;;;7.90;2.47;;;17.50;47.00;;;;;;20842831;28;20045;-69
2021/05/25 08:03:06;;;;;;;7.80;2.63;;;17.70;46.30;;;;;;20853987;28;20509;-71
2021/05/25 08:13:08;;;;;;;8.25;2.30;;;18.10;45.20;;;;;;20837459;28;20072;-74
2021/05/25 08:23:12;;;;;;;8.48;1.88;;;18.70;43.70;;;;;;20835448;28;20050;-60
2021/05/25 08:33:14;;;;;;;6.20;2.42;;;19.40;43.90;;;;;;20889556;28;20048;-59
2021/05/25 08:43:16;;;;;;;7.13;2.50;;;20.70;41.90;;;;;;20880122;28;20042;-60
2021/05/25 08:53:17;;;;;;;9.57;2.22;;;21.20;40.40;;;;;;20830591;28;20439;-59
2021/05/25 09:03:20;;;;;;;10.82;2.22;;;21.60;38.50;;;;;;20832494;28;20049;-65
2021/05/25 09:13:23;;;;;;;17.98;3.38;;;21.70;38.50;;;;;;20831439;28;20093;-58
2021/05/25 09:23:39;;;;;;;10.93;2.83;;;21.80;37.70;;;;;;20851096;28;20049;-57
2021/05/25 09:33:40;;;;;;;10.23;2.75;;;22.20;37.00;;;;;;20858143;28;20111;-63
2021/05/25 09:43:42;;;;;;;14.48;2.80;;;22.50;36.70;;;;;;20839464;28;20046;-62
2021/05/25 09:53:48;;;;;;;6.00;2.50;;;22.70;35.90;;;;;;20868382;28;20090;-61
2021/05/25 10:03:55;;;;;;;9.25;3.30;;;22.80;35.80;;;;;;20908837;28;20187;-67
2021/05/25 10:13:57;;;;;;;5.88;3.13;;;22.80;36.20;;;;;;20910741;28;20048;-64
2021/05/25 10:23:59;;;;;;;;;;;23.10;35.30;;;;;;20908339;28;20052;-62
2021/05/25 10:34:12;;;;;;;5.25;1.90;;;23.00;35.00;;;;;;20908697;28;19952;-62
2021/05/25 10:44:54;;;;;;;5.53;1.70;;;23.10;34.70;;;;;;20840325;28;20418;-67
2021/05/25 10:54:57;;;;;;;5.27;2.10;;;23.30;34.30;;;;;;20825431;28;20065;-67
2021/05/25 11:04:58;;;;;;;8.60;1.98;;;23.20;34.60;;;;;;20835757;28;20049;-63
2021/05/25 11:15:17;;;;;;;6.05;1.77;;;23.20;34.60;;;;;;20840776;28;20068;-65
2021/05/25 11:25:41;;;;;;;6.63;1.73;;;23.40;34.80;;;;;;20840533;28;20045;-71
2021/05/25 11:35:43;;;;;;;5.60;2.20;;;23.50;34.50;;;;;;20841393;28;20060;-71
2021/05/25 11:45:46;;;;;;;3.47;1.60;;;23.40;34.50;;;;;;20840715;28;20045;-72
2021/05/25 11:55:47;;;;;;;;;;;23.60;34.10;;;;;;20840682;28;20053;-72
2021/05/25 12:05:48;;;;;;;3.10;1.40;;;23.30;34.20;;;;;;20838688;28;19921;-73
2021/05/25 12:15:52;;;;;;;4.40;1.57;;;23.50;34.10;;;;;;20835567;28;20513;-72
2021/05/25 12:25:55;;;;;;;3.88;2.00;;;23.70;34.00;;;;;;20836385;28;20052;-72
2021/05/25 12:36:12;;;;;;;3.72;1.60;;;24.10;33.10;;;;;;20835026;28;20057;-71
2021/05/25 12:46:14;;;;;;;3.35;1.80;;;24.30;32.60;;;;;;20840122;28;20050;-69
2021/05/25 12:56:21;;;;;;;6.72;2.03;;;24.10;32.40;;;;;;20832686;28;20045;-60
2021/05/25 13:06:29;;;;;;;4.25;1.70;;;24.20;32.40;;;;;;20835325;28;20053;-70
2021/05/25 13:16:31;;;;;;;4.88;1.83;;;24.30;32.40;;;;;;20850917;28;20049;-72
2021/05/25 13:26:41;;;;;;;2.50;1.60;;;24.40;32.80;;;;;;20883448;28;20051;-71
2021/05/25 13:36:44;;;;;;;5.60;2.10;;;24.60;32.60;;;;;;20834965;28;20119;-69
2021/05/25 13:46:46;;;;;;;5.90;1.80;;;24.60;32.60;;;;;;20833486;28;20045;-68
2021/05/25 13:56:51;;;;;;;3.93;2.23;;;24.60;32.80;;;;;;20847242;28;20049;-68
2021/05/25 14:06:53;;;;;;;5.47;2.95;;;25.00;32.40;;;;;;20830007;28;20765;-71
2021/05/25 14:16:54;;;;;;;3.53;1.73;;;25.00;32.70;;;;;;20832974;28;20486;-71
2021/05/25 14:26:55;;;;;;;5.73;1.97;;;25.20;32.20;;;;;;20848416;28;20046;-70
2021/05/25 14:36:56;;;;;;;4.70;1.97;;;25.20;31.90;;;;;;20833955;28;20057;-71
2021/05/25 14:47:00;;;;;;;6.23;2.20;;;25.40;31.90;;;;;;20845474;28;20056;-71
2021/05/25 14:57:02;;;;;;;4.50;1.92;;;25.50;32.10;;;;;;20843851;28;20053;-72
2021/05/25 15:07:10;;;;;;;10.75;2.45;;;25.30;32.20;;;;;;20847625;28;20413;-70
2021/05/25 15:17:11;;;;;;;5.72;2.10;;;25.40;32.20;;;;;;20842641;28;20065;-71
2021/05/25 15:27:13;;;;;;;5.20;1.90;;;25.60;31.80;;;;;;20841877;28;20049;-72
2021/05/25 15:37:14;;;;;;;5.00;1.77;;;25.60;31.80;;;;;;20840931;28;20053;-71
2021/05/25 15:47:15;;;;;;;4.30;1.87;;;25.80;31.70;;;;;;20842289;28;20049;-72
2021/05/25 15:57:17;;;;;;;4.13;1.67;;;25.90;31.50;;;;;;20839812;28;20469;-65
2021/05/25 16:07:18;;;;;;;6.13;2.00;;;25.80;31.10;;;;;;20836349;28;20493;-67
2021/05/25 16:17:19;;;;;;;9.97;4.80;;;25.70;31.30;;;;;;20879780;28;20402;-59
2021/05/25 16:27:20;;;;;;;3.97;1.60;;;25.30;31.40;;;;;;20884534;28;20410;-65
2021/05/25 16:37:22;;;;;;;4.97;1.95;;;25.20;31.50;;;;;;20833654;28;20061;-60
2021/05/25 16:47:23;;;;;;;9.73;2.33;;;25.30;31.90;;;;;;20833217;28;20395;-61
2021/05/25 16:57:24;;;;;;;5.47;3.37;;;25.40;31.60;;;;;;20832547;28;20049;-60
2021/05/25 17:27:47;;;;;;;5.13;1.87;;;25.60;31.50;;;;;;20832916;28;20052;-68
2021/05/25 17:37:51;;;;;;;4.10;1.90;;;25.50;31.30;;;;;;20830818;28;20057;-66
2021/05/25 17:47:56;;;;;;;4.80;2.40;;;25.50;31.30;;;;;;20831015;28;20506;-65
2021/05/25 17:57:59;;;;;;;2.53;1.70;;;25.40;31.40;;;;;;20829089;28;20176;-64
2021/05/25 18:08:01;;;;;;;5.80;2.47;;;25.40;31.60;;;;;;20868156;28;20068;-60
2021/05/25 18:18:02;;;;;;;3.07;1.80;;;25.50;31.20;;;;;;20906971;28;20140;-66
2021/05/25 18:28:04;;;;;;;4.20;2.03;;;25.40;31.40;;;;;;20908692;28;20339;-59
2021/05/25 18:48:07;;;;;;;7.47;2.07;;;25.30;31.60;;;;;;20907281;28;20456;-60
2021/05/25 19:08:26;;;;;;;7.82;2.83;;;25.10;31.70;;;;;;20910199;28;20469;-59
2021/05/25 19:18:30;;;;;;;8.73;2.72;;;24.90;32.30;;;;;;20906072;28;20045;-62
2021/05/25 19:28:31;;;;;;;7.35;2.35;;;24.70;32.50;;;;;;20856385;28;20052;-59
2021/05/25 19:38:32;;;;;;;6.13;2.50;;;24.70;32.60;;;;;;20851657;28;20080;-65
2021/05/25 19:48:34;;;;;;;5.50;2.33;;;24.70;32.50;;;;;;20841384;28;20053;-66
2021/05/25 19:58:36;;;;;;;;;;;24.60;32.90;;;;;;20841156;28;20049;-65
2021/05/25 20:08:39;;;;;;;7.60;2.58;;;24.50;34.00;;;;;;20839136;28;19921;-64
2021/05/25 20:18:40;;;;;;;10.77;4.27;;;24.50;34.50;;;;;;20837754;28;20053;-66
2021/05/25 20:28:42;;;;;;;8.10;3.17;;;24.40;37.60;;;;;;20836984;28;20107;-66
2021/05/25 20:38:46;;;;;;;5.37;2.87;;;24.10;39.60;;;;;;20834630;28;20199;-65
2021/05/25 20:48:47;;;;;;;9.38;2.70;;;23.90;41.30;;;;;;20835149;28;20045;-64
2021/05/25 20:58:48;;;;;;;5.30;2.93;;;23.70;42.30;;;;;;20835865;28;20053;-68
2021/05/25 21:08:50;;;;;;;7.93;2.95;;;23.40;43.20;;;;;;20834438;28;20057;-66
2021/05/25 21:18:51;;;;;;;10.10;3.00;;;23.20;43.90;;;;;;20832457;28;20060;-65
2021/05/25 21:28:52;;;;;;;8.38;2.95;;;23.00;44.30;;;;;;20832044;28;20133;-65
2021/05/25 21:38:54;;;;;;;4.72;2.20;;;22.80;44.80;;;;;;20834066;28;20379;-66
2021/05/25 21:48:55;;;;;;;6.32;2.72;;;22.70;45.10;;;;;;20830824;28;20348;-65
2021/05/25 21:58:56;;;;;;;6.65;2.65;;;22.50;45.70;;;;;;20830163;28;20045;-66
2021/05/25 22:08:59;;;;;;;6.07;3.05;;;22.30;46.50;;;;;;20830258;28;20092;-65
2021/05/25 22:19:00;;;;;;;7.87;2.97;;;22.20;46.90;;;;;;20845102;28;20131;-66
2021/05/25 22:29:02;;;;;;;7.15;2.95;;;22.00;47.20;;;;;;20829369;28;21549;-66
2021/05/25 22:39:03;;;;;;;6.82;2.88;;;21.90;48.20;;;;;;20828160;28;20041;-65
2021/05/25 22:49:05;;;;;;;7.45;2.85;;;21.60;49.40;;;;;;20828509;28;20051;-64
2021/05/25 22:59:06;;;;;;;6.80;2.63;;;21.40;50.00;;;;;;20835154;28;20046;-65
2021/05/25 23:09:10;;;;;;;6.85;3.03;;;21.40;50.50;;;;;;20841666;28;20083;-65
2021/05/25 23:19:12;;;;;;;6.70;3.17;;;21.20;51.20;;;;;;20842416;28;20057;-63
2021/05/25 23:29:13;;;;;;;7.35;3.40;;;21.20;51.60;;;;;;20841819;28;20425;-65
2021/05/25 23:39:14;;;;;;;6.10;3.00;;;21.00;52.30;;;;;;20841134;28;20045;-65
2021/05/25 23:49:16;;;;;;;7.32;2.80;;;20.90;53.00;;;;;;20839281;28;20431;-64
2021/05/25 23:59:17;;;;;;;6.35;3.15;;;20.70;53.80;;;;;;20839680;28;20049;-64
